Newport (Isle of Wight), United Kingdom
Current Conditions -  °F | °C
As of 12:50 PM on Wednesday 22 Oct 2014 (Local Time) from EGHI Reporting Station
Few Clouds Few Clouds  
Wind Chill: 55°   Ceiling: Unl
Heat Index: 55°   Visibility: 6mi
Dew Point: 41°   Wind: 8mph
Humidity: 58%   Direction: 320°NW
Pressure: 30.3"   Gusts: NA
Location:  50.7°N, 1.29°W
Report Text: EGHI 221150Z 32007KT 230V010 9999 FEW036 13/05 Q1026
Loading
Personal Weather Stations






























Interactive Weather Map New forecast layout! Learn more

10-Day Weather Forecast

Advertisements
Track Severe Weather on mobile